createdAt,value
2018-03-01T00:01:04.416Z,1017.5
2018-03-01T00:06:04.706Z,1017.5
2018-03-01T00:11:04.738Z,1017.4
2018-03-01T00:16:04.309Z,1017.3
2018-03-01T00:21:04.238Z,1017.3
2018-03-01T00:26:04.915Z,1017.2
2018-03-01T00:31:04.569Z,1017.1
2018-03-01T00:36:04.989Z,1017
2018-03-01T00:41:04.768Z,1017.1
2018-03-01T00:46:04.486Z,1017.1
2018-03-01T00:51:04.421Z,1017
2018-03-01T00:56:04.093Z,1016.9
2018-03-01T01:01:04.739Z,1016.9
2018-03-01T01:06:04.707Z,1016.8
2018-03-01T01:11:04.722Z,1016.7
2018-03-01T01:16:04.397Z,1016.6
2018-03-01T01:21:04.446Z,1016.5
2018-03-01T01:26:04.076Z,1016.6
2018-03-01T01:31:04.733Z,1016.6
2018-03-01T01:36:04.780Z,1016.5
2018-03-01T01:41:04.759Z,1016.4
2018-03-01T01:46:04.391Z,1016.5
2018-03-01T01:51:04.376Z,1016.5
2018-03-01T01:56:04.999Z,1016.4
2018-03-01T02:01:04.633Z,1016.4
2018-03-01T02:06:04.594Z,1016.4
2018-03-01T02:11:04.614Z,1016.3
2018-03-01T02:16:04.278Z,1016.1
2018-03-01T02:21:04.238Z,1016
2018-03-01T02:26:04.165Z,1015.8
2018-03-01T02:31:04.818Z,1015.7
2018-03-01T02:36:04.836Z,1015.6
2018-03-01T02:41:04.831Z,1015.5
2018-03-01T02:46:04.515Z,1015.6
2018-03-01T02:51:04.466Z,1015.5
2018-03-01T02:56:05.042Z,1015.4
2018-03-01T03:01:04.692Z,1015.3
2018-03-01T03:06:04.643Z,1015.2
2018-03-01T03:11:04.617Z,1015.2
2018-03-01T03:16:04.261Z,1015
2018-03-01T03:21:04.246Z,1014.9
2018-03-01T03:26:04.888Z,1014.8
2018-03-01T03:31:04.539Z,1014.8
2018-03-01T03:36:04.507Z,1014.8
2018-03-01T03:41:04.445Z,1014.8
2018-03-01T03:46:04.150Z,1014.8
2018-03-01T03:51:05.101Z,1014.8
2018-03-01T03:56:04.710Z,1014.7
2018-03-01T04:01:04.355Z,1014.6
2018-03-01T04:06:04.323Z,1014.6
2018-03-01T04:11:04.325Z,1014.6
2018-03-01T04:16:04.998Z,1014.7
2018-03-01T04:21:04.319Z,1014.6
2018-03-01T04:26:04.958Z,1014.5
2018-03-01T04:31:04.658Z,1014.4
2018-03-01T04:36:04.931Z,1014.5
2018-03-01T04:41:04.667Z,1014.3
2018-03-01T04:46:04.308Z,1014.1
2018-03-01T04:51:04.175Z,1014.1
2018-03-01T04:56:04.796Z,1014.1
2018-03-01T05:01:04.402Z,1014.1
2018-03-01T05:06:04.341Z,1014.1
2018-03-01T05:11:04.323Z,1014
2018-03-01T05:16:04.941Z,1014
2018-03-01T05:21:04.959Z,1013.9
2018-03-01T05:26:04.377Z,1014
2018-03-01T05:31:04.068Z,1014
2018-03-01T05:36:05.129Z,1014
2018-03-01T05:41:04.062Z,1013.9
2018-03-01T05:46:04.726Z,1013.9
2018-03-01T05:51:04.635Z,1014.2
2018-03-01T05:56:04.292Z,1014.2
2018-03-01T06:01:04.966Z,1014
2018-03-01T06:06:04.951Z,1014
2018-03-01T06:11:05.003Z,1014.1
2018-03-01T06:16:04.676Z,1014.1
2018-03-01T06:21:04.705Z,1014.2
2018-03-01T06:26:04.340Z,1014.1
2018-03-01T06:31:04.951Z,1014
2018-03-01T06:36:04.900Z,1013.9
2018-03-01T06:41:04.892Z,1013.8
2018-03-01T06:46:04.612Z,1013.8
2018-03-01T06:51:04.576Z,1013.7
2018-03-01T06:56:04.209Z,1013.6
2018-03-01T07:01:04.877Z,1013.4
2018-03-01T07:06:04.830Z,1013.7
2018-03-01T07:11:04.899Z,1013.6
2018-03-01T07:16:04.503Z,1013.7
2018-03-01T07:21:04.476Z,1013.6
2018-03-01T07:26:04.174Z,1013.6
2018-03-01T07:31:04.836Z,1013.6
2018-03-01T07:36:04.790Z,1013.6
2018-03-01T07:41:04.827Z,1013.5
2018-03-01T07:46:04.472Z,1013.4
2018-03-01T07:51:04.735Z,1013.3
2018-03-01T07:56:04.105Z,1013.2
2018-03-01T08:01:04.748Z,1013.2
2018-03-01T08:06:04.727Z,1013.2
2018-03-01T08:11:04.714Z,1013.1
2018-03-01T08:16:04.332Z,1013
2018-03-01T08:21:04.318Z,1013
2018-03-01T08:26:04.871Z,1013
2018-03-01T08:31:04.446Z,1013
2018-03-01T08:36:04.454Z,1012.8
2018-03-01T08:41:04.770Z,1012.7
2018-03-01T08:46:04.479Z,1012.6
2018-03-01T08:51:04.403Z,1012.5
2018-03-01T08:56:04.129Z,1012.5
2018-03-01T09:01:04.722Z,1012.5
2018-03-01T09:06:04.680Z,1012.2
2018-03-01T09:11:04.620Z,1012.2
2018-03-01T09:16:04.260Z,1012
2018-03-01T09:21:04.291Z,1011.8
2018-03-01T09:26:04.921Z,1011.8
2018-03-01T09:31:04.591Z,1011.8
2018-03-01T09:36:04.554Z,1011.7
2018-03-01T09:41:04.563Z,1011.6
2018-03-01T09:46:04.206Z,1011.5
2018-03-01T09:51:04.158Z,1011.4
2018-03-01T09:56:04.755Z,1011.2
2018-03-01T10:01:04.595Z,1011.3
2018-03-01T10:06:04.596Z,1011.3
2018-03-01T10:11:04.645Z,1011.1
2018-03-01T10:16:04.300Z,1011.2
2018-03-01T10:21:04.323Z,1011
2018-03-01T10:26:04.985Z,1010.9
2018-03-01T10:31:04.678Z,1011
2018-03-01T10:36:04.681Z,1010.7
2018-03-01T10:41:04.618Z,1010.6
2018-03-01T10:46:04.277Z,1010.6
2018-03-01T10:51:04.241Z,1010.6
2018-03-01T10:56:04.842Z,1010.4
2018-03-01T11:01:04.447Z,1010.3
2018-03-01T11:06:04.419Z,1010.3
2018-03-01T11:11:04.355Z,1010.3
2018-03-01T11:16:04.973Z,1010.2
2018-03-01T11:21:04.941Z,1010.2
2018-03-01T11:26:04.538Z,1010.1
2018-03-01T11:31:04.140Z,1010.1
2018-03-01T11:36:05.056Z,1009.9
2018-03-01T11:41:04.787Z,1009.8
2018-03-01T11:46:04.431Z,1009.5
2018-03-01T11:51:04.321Z,1009.6
2018-03-01T11:56:04.972Z,1009.4
2018-03-01T12:01:04.592Z,1009.5
2018-03-01T12:06:04.548Z,1009.4
2018-03-01T12:11:04.677Z,1009.2
2018-03-01T12:16:04.352Z,1009.1
2018-03-01T12:21:04.337Z,1009
2018-03-01T12:26:04.905Z,1009
2018-03-01T12:31:04.561Z,1008.9
2018-03-01T12:36:04.558Z,1008.8
2018-03-01T12:41:04.576Z,1008.7
2018-03-01T12:46:04.659Z,1008.7
2018-03-01T12:51:04.281Z,1008.6
2018-03-01T12:56:04.913Z,1008.5
2018-03-01T13:01:04.548Z,1008.6
2018-03-01T13:06:04.504Z,1008.3
2018-03-01T13:11:04.507Z,1008.2
2018-03-01T13:16:04.194Z,1008.2
2018-03-01T13:21:04.187Z,1008
2018-03-01T13:26:04.858Z,1008
2018-03-01T13:31:04.429Z,1008.1
2018-03-01T13:36:04.462Z,1008.1
2018-03-01T13:41:04.457Z,1008
2018-03-01T13:46:04.158Z,1008.1
2018-03-01T13:51:04.577Z,1007.9
2018-03-01T13:56:04.176Z,1007.9
2018-03-01T14:01:04.780Z,1007.6
2018-03-01T14:06:04.766Z,1007.6
2018-03-01T14:11:04.823Z,1007.5
2018-03-01T14:16:04.503Z,1007.5
2018-03-01T14:21:04.526Z,1007.5
2018-03-01T14:26:04.174Z,1007.5
2018-03-01T14:31:04.935Z,1007.4
2018-03-01T14:36:04.860Z,1007.4
2018-03-01T14:41:04.826Z,1007.3
2018-03-01T14:46:04.458Z,1007.4
2018-03-01T14:51:04.452Z,1007.3
2018-03-01T14:56:04.343Z,1007.2
2018-03-01T15:01:05.015Z,1007
2018-03-01T15:06:05.028Z,1007
2018-03-01T15:11:04.060Z,1006.9
2018-03-01T15:16:04.761Z,1007
2018-03-01T15:21:04.747Z,1006.8
2018-03-01T15:26:04.353Z,1006.8
2018-03-01T15:31:04.165Z,1006.8
2018-03-01T15:36:05.127Z,1006.6
2018-03-01T15:41:04.187Z,1006.6
2018-03-01T15:46:04.893Z,1006.5
2018-03-01T15:51:04.829Z,1006.6
2018-03-01T15:56:04.410Z,1006.6
2018-03-01T16:01:04.132Z,1006.6
2018-03-01T16:06:05.111Z,1006.5
2018-03-01T16:11:04.143Z,1006.6
2018-03-01T16:16:05.996Z,1006.5
2018-03-01T16:21:04.868Z,1006.5
2018-03-01T16:26:04.439Z,1006.5
2018-03-01T16:31:05.033Z,1006.4
2018-03-01T16:36:04.972Z,1006.5
2018-03-01T16:41:04.931Z,1006.5
2018-03-01T16:46:04.588Z,1006.6
2018-03-01T16:51:04.515Z,1006.5
2018-03-01T16:56:04.192Z,1006.7
2018-03-01T17:01:04.838Z,1006.6
2018-03-01T17:06:04.822Z,1006.6
2018-03-01T17:11:05.017Z,1006.6
2018-03-01T17:16:04.499Z,1006.7
2018-03-01T17:21:04.543Z,1006.7
2018-03-01T17:26:04.686Z,1006.8
2018-03-01T17:31:04.833Z,1006.9
2018-03-01T17:36:04.832Z,1007
2018-03-01T17:41:04.862Z,1007
2018-03-01T17:46:05.046Z,1006.9
2018-03-01T17:51:05.026Z,1006.9
2018-03-01T17:56:05.058Z,1007.1
2018-03-01T18:01:04.364Z,1007
2018-03-01T18:06:04.342Z,1006.9
2018-03-01T18:11:04.534Z,1006.9
2018-03-01T18:16:04.457Z,1006.8
2018-03-01T18:21:04.909Z,1006.7
2018-03-01T18:26:05.218Z,1006.8
2018-03-01T18:31:04.371Z,1006.6
2018-03-01T18:36:04.288Z,1006.6
2018-03-01T18:41:04.344Z,1006.7
2018-03-01T18:46:05.158Z,1006.6
2018-03-01T18:51:04.469Z,1006.5
2018-03-01T18:56:04.956Z,1006.6
2018-03-01T19:01:04.876Z,1006.5
2018-03-01T19:06:09.577Z,1006.6
2018-03-01T19:11:04.746Z,1006.5
2018-03-01T19:16:04.285Z,1006.6
2018-03-01T19:21:04.340Z,1006.5
2018-03-01T19:26:05.225Z,1006.5
2018-03-01T19:31:04.887Z,1006.5
2018-03-01T19:36:04.788Z,1006.6
2018-03-01T19:41:05.014Z,1006.6
2018-03-01T19:46:04.641Z,1006.4
2018-03-01T19:51:05.088Z,1006.4
2018-03-01T19:56:05.710Z,1006.5
2018-03-01T20:01:04.957Z,1006.5
2018-03-01T20:06:06.970Z,1006.4
2018-03-01T20:11:05.217Z,1006.4
2018-03-01T20:16:04.349Z,1006.3
2018-03-01T20:21:04.362Z,1006.2
2018-03-01T20:26:04.470Z,1006.2
2018-03-01T20:31:04.816Z,1006.2
2018-03-01T20:36:05.033Z,1006.2
2018-03-01T20:41:05.055Z,1006
2018-03-01T20:46:04.764Z,1006
2018-03-01T20:51:04.728Z,1005.9
2018-03-01T20:56:04.336Z,1006
2018-03-01T21:01:04.314Z,1005.9
2018-03-01T21:06:05.540Z,1005.9
2018-03-01T21:11:04.344Z,1005.8
2018-03-01T21:16:04.167Z,1005.8
2018-03-01T21:21:04.268Z,1005.7
2018-03-01T21:26:04.955Z,1005.7
2018-03-01T21:31:04.961Z,1005.7
2018-03-01T21:36:04.970Z,1005.7
2018-03-01T21:41:05.189Z,1005.7
2018-03-01T21:46:04.701Z,1005.6
2018-03-01T21:51:04.750Z,1005.7
2018-03-01T21:56:04.311Z,1005.5
2018-03-01T22:01:04.822Z,1005.5
2018-03-01T22:06:04.944Z,1005.5
2018-03-01T22:11:04.258Z,1005.5
2018-03-01T22:16:05.325Z,1005.5
2018-03-01T22:21:05.001Z,1005.6
2018-03-01T22:26:04.819Z,1005.7
2018-03-01T22:31:04.410Z,1005.6
2018-03-01T22:36:04.538Z,1005.6
2018-03-01T22:41:04.390Z,1005.5
2018-03-01T22:46:04.148Z,1005.5
2018-03-01T22:51:04.479Z,1005.3
2018-03-01T22:56:04.331Z,1005.4
2018-03-01T23:01:05.055Z,1005.3
2018-03-01T23:06:04.957Z,1005.3
2018-03-01T23:11:04.957Z,1005.2
2018-03-01T23:16:05.785Z,1005.2
2018-03-01T23:21:06.420Z,1005.2
2018-03-01T23:26:05.630Z,1005.2
2018-03-01T23:31:05.816Z,1005.2
2018-03-01T23:36:04.265Z,1005.2
2018-03-01T23:41:04.343Z,1005.2
2018-03-01T23:46:05.005Z,1005.1
2018-03-01T23:51:04.974Z,1005
2018-03-01T23:56:04.624Z,1005
